createdAt,value
2018-06-23T00:01:31.566Z,5.27
2018-06-23T00:04:01.021Z,4.10
2018-06-23T00:06:30.563Z,5.20
2018-06-23T00:08:59.988Z,4.50
2018-06-23T00:11:29.459Z,5.07
2018-06-23T00:13:58.942Z,4.30
2018-06-23T00:16:28.443Z,4.37
2018-06-23T00:18:58.920Z,5.37
2018-06-23T00:21:28.463Z,5.23
2018-06-23T00:23:57.975Z,6.70
2018-06-23T00:26:31.028Z,5.00
2018-06-23T00:29:01.619Z,4.03
2018-06-23T00:31:31.543Z,3.67
2018-06-23T00:34:01.091Z,3.40
2018-06-23T00:36:31.115Z,4.57
2018-06-23T00:39:00.629Z,4.70
2018-06-23T00:41:30.550Z,4.90
2018-06-23T00:44:00.047Z,4.10
2018-06-23T00:46:30.115Z,4.07
2018-06-23T00:48:59.605Z,3.90
2018-06-23T00:51:29.738Z,3.73
2018-06-23T00:53:59.335Z,3.53
2018-06-23T00:56:28.839Z,4.10
2018-06-23T01:00:06.121Z,4.67
2018-06-23T01:02:35.570Z,3.03
2018-06-23T01:05:05.066Z,3.03
2018-06-23T01:07:34.531Z,3.30
2018-06-23T01:10:04.539Z,3.60
2018-06-23T01:12:34.971Z,3.47
2018-06-23T01:15:04.729Z,3.73
2018-06-23T01:17:34.306Z,3.40
2018-06-23T01:20:03.841Z,4.40
2018-06-23T01:22:33.820Z,4.10
2018-06-23T01:25:03.941Z,3.87
2018-06-23T01:27:34.042Z,3.60
2018-06-23T01:30:04.043Z,5.03
2018-06-23T01:32:33.514Z,3.50
2018-06-23T01:35:03.079Z,3.83
2018-06-23T01:37:33.164Z,3.93
2018-06-23T01:40:02.806Z,4.50
2018-06-23T01:42:32.330Z,3.90
2018-06-23T01:45:01.947Z,3.87
2018-06-23T01:47:31.512Z,3.90
2018-06-23T01:50:01.849Z,5.03
2018-06-23T01:52:31.414Z,4.13
2018-06-23T01:55:01.520Z,4.93
2018-06-23T01:57:31.104Z,4.10
2018-06-23T02:00:00.551Z,4.17
2018-06-23T02:02:30.089Z,3.30
2018-06-23T02:04:59.640Z,3.17
2018-06-23T02:07:29.176Z,3.70
2018-06-23T02:09:59.121Z,3.43
2018-06-23T02:12:28.804Z,3.13
2018-06-23T02:15:03.452Z,3.13
2018-06-23T02:17:38.262Z,2.53
2018-06-23T02:20:13.028Z,3.57
2018-06-23T02:22:47.832Z,2.87
2018-06-23T02:25:22.678Z,3.13
2018-06-23T02:27:57.377Z,2.97
2018-06-23T02:30:32.578Z,2.70
2018-06-23T02:33:07.341Z,2.80
2018-06-23T02:35:39.719Z,2.63
2018-06-23T02:38:09.216Z,2.70
2018-06-23T02:40:38.716Z,2.60
2018-06-23T02:43:08.338Z,2.83
2018-06-23T02:45:37.965Z,2.83
2018-06-23T02:48:07.590Z,3.03
2018-06-23T02:50:37.058Z,2.43
2018-06-23T02:53:06.683Z,2.40
2018-06-23T02:55:36.194Z,3.33
2018-06-23T02:58:05.913Z,2.90
2018-06-23T03:00:35.489Z,2.60
2018-06-23T03:03:04.940Z,3.03
2018-06-23T03:05:35.051Z,3.50
2018-06-23T03:08:04.700Z,4.30
2018-06-23T03:10:34.201Z,3.60
2018-06-23T03:13:03.871Z,3.73
2018-06-23T03:15:33.363Z,3.33
2018-06-23T03:18:02.924Z,3.03
2018-06-23T03:20:33.623Z,3.60
2018-06-23T03:23:03.072Z,4.50
2018-06-23T03:25:32.559Z,3.80
2018-06-23T03:28:02.172Z,3.33
2018-06-23T03:30:31.645Z,3.00
2018-06-23T03:33:01.167Z,2.90
2018-06-23T03:35:30.687Z,2.57
2018-06-23T03:38:00.419Z,3.40
2018-06-23T03:40:29.901Z,3.10
2018-06-23T03:42:59.401Z,2.80
2018-06-23T03:45:28.909Z,4.00
2018-06-23T03:47:58.427Z,3.43
2018-06-23T03:50:27.940Z,3.37
2018-06-23T03:52:57.497Z,3.30
2018-06-23T03:55:27.099Z,3.47
2018-06-23T03:57:56.550Z,3.20
2018-06-23T04:00:26.100Z,3.60
2018-06-23T04:02:55.581Z,4.33
2018-06-23T04:05:25.061Z,4.60
2018-06-23T04:07:54.540Z,4.47
2018-06-23T04:10:24.136Z,3.93
2018-06-23T04:12:53.946Z,5.23
2018-06-23T04:15:23.448Z,5.50
2018-06-23T04:17:52.917Z,4.10
2018-06-23T04:20:22.352Z,3.87
2018-06-23T04:22:52.002Z,3.63
2018-06-23T04:25:22.005Z,3.33
2018-06-23T04:27:51.528Z,3.60
2018-06-23T04:30:21.021Z,5.73
2018-06-23T04:32:50.491Z,5.63
2018-06-23T04:35:19.944Z,4.87
2018-06-23T04:37:49.580Z,4.03
2018-06-23T04:40:19.806Z,4.00
2018-06-23T04:42:49.639Z,4.37
2018-06-23T04:45:19.125Z,4.53
2018-06-23T04:47:48.678Z,3.87
2018-06-23T04:50:18.195Z,4.23
2018-06-23T04:52:47.842Z,3.93
2018-06-23T04:55:17.324Z,3.10
2018-06-23T04:57:46.848Z,3.87
2018-06-23T05:00:16.344Z,3.93
2018-06-23T05:02:45.846Z,3.87
2018-06-23T05:05:15.320Z,4.70
2018-06-23T05:07:45.318Z,4.33
2018-06-23T05:10:14.865Z,3.83
2018-06-23T05:12:44.315Z,5.87
2018-06-23T05:15:14.938Z,3.90
2018-06-23T05:17:44.734Z,3.80
2018-06-23T05:20:14.425Z,3.60
2018-06-23T05:22:43.823Z,3.07
2018-06-23T05:25:13.402Z,3.20
2018-06-23T05:27:43.734Z,3.40
2018-06-23T05:30:13.356Z,2.80
2018-06-23T05:32:42.860Z,2.60
2018-06-23T05:35:12.438Z,4.33
2018-06-23T05:37:43.091Z,3.30
2018-06-23T05:40:12.578Z,2.53
2018-06-23T05:42:42.100Z,3.00
2018-06-23T05:45:11.570Z,3.00
2018-06-23T05:47:40.998Z,2.80
2018-06-23T05:50:10.984Z,2.40
2018-06-23T05:52:40.467Z,2.67
2018-06-23T05:55:10.072Z,3.00
2018-06-23T05:57:39.572Z,3.73
2018-06-23T06:00:09.114Z,3.07
2018-06-23T06:02:38.556Z,3.30
2018-06-23T06:05:07.998Z,2.67
2018-06-23T06:07:37.450Z,2.80
2018-06-23T06:10:06.873Z,2.57
2018-06-23T06:12:36.327Z,3.90
2018-06-23T06:15:05.708Z,4.10
2018-06-23T06:17:38.199Z,2.97
2018-06-23T06:20:11.208Z,2.90
2018-06-23T06:22:42.663Z,3.30
2018-06-23T06:25:12.754Z,2.73
2018-06-23T06:27:42.797Z,2.80
2018-06-23T06:30:12.828Z,3.00
2018-06-23T06:32:42.320Z,2.77
2018-06-23T06:35:11.994Z,3.07
2018-06-23T06:37:41.724Z,3.23
2018-06-23T06:40:12.259Z,2.73
2018-06-23T06:42:41.901Z,3.43
2018-06-23T06:45:11.510Z,3.47
2018-06-23T06:47:41.107Z,3.00
2018-06-23T06:50:10.748Z,2.83
2018-06-23T06:52:40.300Z,2.90
2018-06-23T06:55:10.744Z,3.57
2018-06-23T06:57:40.445Z,3.20
2018-06-23T07:00:10.084Z,3.73
2018-06-23T07:02:40.082Z,3.20
2018-06-23T07:05:09.526Z,3.10
2018-06-23T07:07:39.526Z,2.60
2018-06-23T07:10:09.243Z,2.70
2018-06-23T07:12:38.678Z,2.73
2018-06-23T07:15:16.470Z,3.00
2018-06-23T07:17:46.235Z,3.70
2018-06-23T07:20:15.742Z,3.67
2018-06-23T07:22:45.459Z,3.60
2018-06-23T07:25:14.970Z,3.13
2018-06-23T07:27:45.526Z,3.90
2018-06-23T07:30:15.002Z,2.50
2018-06-23T07:32:45.182Z,3.17
2018-06-23T07:35:14.802Z,2.43
2018-06-23T07:37:44.200Z,3.07
2018-06-23T07:40:13.795Z,3.70
2018-06-23T07:42:44.279Z,3.23
2018-06-23T07:45:13.830Z,2.73
2018-06-23T07:47:43.324Z,3.17
2018-06-23T07:50:12.606Z,2.87
2018-06-23T07:52:42.202Z,3.43
2018-06-23T07:55:11.662Z,2.83
2018-06-23T07:57:42.112Z,3.50
2018-06-23T08:00:11.624Z,2.97
2018-06-23T08:02:41.197Z,3.00
2018-06-23T08:05:10.873Z,2.77
2018-06-23T08:07:41.093Z,3.13
2018-06-23T08:10:10.931Z,2.47
2018-06-23T08:12:40.513Z,3.50
2018-06-23T08:15:10.035Z,2.63
2018-06-23T08:17:40.306Z,3.23
2018-06-23T08:20:10.821Z,2.77
2018-06-23T08:22:40.656Z,2.57
2018-06-23T08:25:10.332Z,2.73
2018-06-23T08:27:39.843Z,3.10
2018-06-23T08:32:32.110Z,3.20
2018-06-23T08:35:01.810Z,2.83
2018-06-23T08:37:31.401Z,3.40
2018-06-23T08:40:01.207Z,3.47
2018-06-23T08:42:31.022Z,3.57
2018-06-23T08:45:00.600Z,2.60
2018-06-23T08:47:30.737Z,2.60
2018-06-23T08:50:00.251Z,2.73
2018-06-23T08:52:29.823Z,2.30
2018-06-23T08:54:59.300Z,3.03
2018-06-23T08:57:28.872Z,2.90
2018-06-23T08:59:58.399Z,3.03
2018-06-23T09:02:27.979Z,3.33
2018-06-23T09:04:58.010Z,3.00
2018-06-23T09:07:27.607Z,3.20
2018-06-23T09:09:57.690Z,2.30
2018-06-23T09:12:27.185Z,2.73
2018-06-23T09:14:57.460Z,2.70
2018-06-23T09:17:26.805Z,2.80
2018-06-23T09:19:56.365Z,3.40
2018-06-23T09:22:25.835Z,2.67
2018-06-23T09:24:55.905Z,3.20
2018-06-23T09:27:25.496Z,2.70
2018-06-23T09:29:55.127Z,2.83
2018-06-23T09:32:25.471Z,2.63
2018-06-23T09:34:54.983Z,2.83
2018-06-23T09:37:24.507Z,3.47
2018-06-23T09:39:55.013Z,3.47
2018-06-23T09:42:24.739Z,2.73
2018-06-23T09:44:54.914Z,2.83
2018-06-23T09:47:24.941Z,3.20
2018-06-23T09:49:54.939Z,3.07
2018-06-23T09:52:24.398Z,3.47
2018-06-23T09:54:54.428Z,2.80
2018-06-23T09:57:24.513Z,3.07
2018-06-23T09:59:53.993Z,3.30
2018-06-23T10:02:24.054Z,2.27
2018-06-23T10:04:53.622Z,2.77
2018-06-23T10:07:23.355Z,2.60
2018-06-23T10:09:52.782Z,2.60
2018-06-23T10:12:22.309Z,3.07
2018-06-23T10:14:52.535Z,2.73
2018-06-23T10:17:22.025Z,3.10
2018-06-23T10:19:51.687Z,3.53
2018-06-23T10:22:21.129Z,3.60
2018-06-23T10:24:50.742Z,2.77
2018-06-23T10:27:20.897Z,3.50
2018-06-23T10:29:50.387Z,2.97
2018-06-23T10:32:19.847Z,3.00
2018-06-23T10:34:49.416Z,2.60
2018-06-23T10:37:18.607Z,2.73
2018-06-23T10:39:48.365Z,3.73
2018-06-23T10:42:17.862Z,2.90
2018-06-23T10:44:47.349Z,2.73
2018-06-23T10:47:18.892Z,3.20
2018-06-23T10:49:48.365Z,3.33
2018-06-23T10:52:17.880Z,3.50
2018-06-23T10:54:48.187Z,3.50
2018-06-23T10:57:17.702Z,3.13
2018-06-23T10:59:47.216Z,3.17
2018-06-23T11:02:16.747Z,2.87
2018-06-23T11:04:46.238Z,3.00
2018-06-23T11:07:15.760Z,3.77
2018-06-23T11:09:46.013Z,3.00
2018-06-23T11:12:15.879Z,4.13
2018-06-23T11:14:45.863Z,2.60
2018-06-23T11:17:16.291Z,2.80
2018-06-23T11:19:46.445Z,2.60
2018-06-23T11:22:15.973Z,2.77
2018-06-23T11:24:46.027Z,4.20
2018-06-23T11:27:15.531Z,2.00
2018-06-23T11:29:45.073Z,2.73
2018-06-23T11:32:14.748Z,2.50
2018-06-23T11:34:44.342Z,2.50
2018-06-23T11:37:13.815Z,2.87
2018-06-23T11:39:43.251Z,3.33
2018-06-23T11:42:12.751Z,2.63
2018-06-23T11:44:42.949Z,2.30
2018-06-23T11:47:12.439Z,2.90
2018-06-23T11:49:41.987Z,2.70
2018-06-23T11:52:12.093Z,3.60
2018-06-23T11:54:41.598Z,2.43
2018-06-23T11:57:11.903Z,3.27
2018-06-23T11:59:41.114Z,2.80
2018-06-23T12:02:10.725Z,3.30
2018-06-23T12:04:40.263Z,2.73
2018-06-23T12:07:09.739Z,3.90
2018-06-23T12:09:39.220Z,2.80
2018-06-23T12:12:08.652Z,3.57
2018-06-23T12:14:38.140Z,3.07
2018-06-23T12:17:07.646Z,4.00
2018-06-23T12:19:37.250Z,3.00
2018-06-23T12:22:06.820Z,3.00
2018-06-23T12:24:36.284Z,3.37
2018-06-23T12:27:05.787Z,3.83
2018-06-23T12:29:35.243Z,3.80
2018-06-23T12:32:04.779Z,4.03
2018-06-23T12:34:34.292Z,3.90
2018-06-23T12:37:04.296Z,4.70
2018-06-23T12:39:34.230Z,4.23
2018-06-23T12:42:04.183Z,4.07
2018-06-23T12:44:33.928Z,4.43
2018-06-23T12:47:03.437Z,4.13
2018-06-23T12:49:32.968Z,4.80
2018-06-23T12:52:03.075Z,4.53
2018-06-23T12:54:33.257Z,4.10
2018-06-23T12:57:02.805Z,3.27
2018-06-23T12:59:33.243Z,3.53
2018-06-23T13:02:03.279Z,4.73
2018-06-23T13:04:32.788Z,2.93
2018-06-23T13:07:02.296Z,2.93
2018-06-23T13:09:31.856Z,3.60
2018-06-23T13:12:01.373Z,2.83
2018-06-23T13:14:30.864Z,2.60
2018-06-23T13:17:00.309Z,3.70
2018-06-23T13:19:29.850Z,2.50
2018-06-23T13:21:59.326Z,4.10
2018-06-23T13:24:28.840Z,2.70
2018-06-23T13:26:58.544Z,3.53
2018-06-23T13:29:28.323Z,2.83
2018-06-23T13:31:58.800Z,4.70
2018-06-23T13:34:28.463Z,2.83
2018-06-23T13:36:57.982Z,2.23
2018-06-23T13:39:27.818Z,2.10
2018-06-23T13:41:57.501Z,3.63
2018-06-23T13:44:27.081Z,2.70
2018-06-23T13:46:56.644Z,3.70
2018-06-23T13:49:26.212Z,2.80
2018-06-23T13:51:55.777Z,3.30
2018-06-23T13:54:25.276Z,3.23
2018-06-23T13:56:55.074Z,3.37
2018-06-23T13:59:24.712Z,3.30
2018-06-23T14:01:54.204Z,3.10
2018-06-23T14:04:24.307Z,3.40
2018-06-23T14:06:53.995Z,2.87
2018-06-23T14:09:24.490Z,3.03
2018-06-23T14:11:54.042Z,2.90
2018-06-23T14:14:23.567Z,3.03
2018-06-23T14:16:54.180Z,3.07
2018-06-23T14:19:23.762Z,2.33
2018-06-23T14:21:54.105Z,3.40
2018-06-23T14:24:23.629Z,3.23
2018-06-23T14:26:53.599Z,2.90
2018-06-23T14:29:23.138Z,3.40
2018-06-23T14:31:52.798Z,4.83
2018-06-23T14:34:22.141Z,2.53
2018-06-23T14:36:52.799Z,3.33
2018-06-23T14:39:22.371Z,2.30
2018-06-23T14:41:52.799Z,2.70
2018-06-23T14:44:22.318Z,3.00
2018-06-23T14:46:51.873Z,2.60
2018-06-23T14:49:21.441Z,3.63
2018-06-23T14:51:51.033Z,2.77
2018-06-23T14:54:20.561Z,2.93
2018-06-23T14:56:50.517Z,3.00
2018-06-23T14:59:19.977Z,2.80
2018-06-23T15:01:49.515Z,2.70
2018-06-23T15:04:19.672Z,3.03
2018-06-23T15:06:49.135Z,2.53
2018-06-23T15:09:35.754Z,3.10
2018-06-23T15:12:22.389Z,3.30
2018-06-23T15:14:51.855Z,3.60
2018-06-23T15:17:21.389Z,3.57
2018-06-23T15:19:51.704Z,2.93
2018-06-23T15:22:21.156Z,3.77
2018-06-23T15:24:50.654Z,3.33
2018-06-23T15:27:20.616Z,3.07
2018-06-23T15:29:50.283Z,3.77
2018-06-23T15:32:20.551Z,3.87
2018-06-23T15:34:50.465Z,3.37
2018-06-23T15:37:19.978Z,3.43
2018-06-23T15:39:50.063Z,3.53
2018-06-23T15:42:19.422Z,4.63
2018-06-23T15:44:48.960Z,3.53
2018-06-23T15:47:19.136Z,3.00
2018-06-23T15:49:48.780Z,3.63
2018-06-23T15:52:19.275Z,4.37
2018-06-23T15:54:49.428Z,4.23
2018-06-23T15:57:18.952Z,3.70
2018-06-23T15:59:48.522Z,3.60
2018-06-23T16:02:18.017Z,4.27
2018-06-23T16:04:48.274Z,3.60
2018-06-23T16:07:17.786Z,3.47
2018-06-23T16:09:47.408Z,4.03
2018-06-23T16:12:17.966Z,3.03
2018-06-23T16:14:47.564Z,3.80
2018-06-23T16:17:17.555Z,3.37
2018-06-23T16:19:47.029Z,3.47
2018-06-23T16:22:16.805Z,3.03
2018-06-23T16:24:46.286Z,3.47
2018-06-23T16:27:15.825Z,4.10
2018-06-23T16:29:45.387Z,3.73
2018-06-23T16:32:14.924Z,3.63
2018-06-23T16:34:44.548Z,3.57
2018-06-23T16:37:13.987Z,4.20
2018-06-23T16:39:43.500Z,3.87
2018-06-23T16:42:13.024Z,3.20
2018-06-23T16:44:42.560Z,3.37
2018-06-23T16:47:12.162Z,3.90
2018-06-23T16:49:41.666Z,3.80
2018-06-23T16:52:11.449Z,4.77
2018-06-23T16:54:40.996Z,3.53
2018-06-23T16:57:10.473Z,4.23
2018-06-23T16:59:39.986Z,3.80
2018-06-23T17:02:09.570Z,3.80
2018-06-23T17:04:39.112Z,3.97
2018-06-23T17:07:08.626Z,5.53
2018-06-23T17:09:38.161Z,4.07
2018-06-23T17:12:07.828Z,5.10
2018-06-23T17:14:37.369Z,4.80
2018-06-23T17:17:06.970Z,4.30
2018-06-23T17:19:36.554Z,4.53
2018-06-23T17:22:05.990Z,4.87
2018-06-23T17:24:35.489Z,4.40
2018-06-23T17:27:05.120Z,4.60
2018-06-23T17:29:34.617Z,4.73
2018-06-23T17:32:04.130Z,4.57
2018-06-23T17:34:33.635Z,4.73
2018-06-23T17:37:03.694Z,4.93
2018-06-23T17:39:33.376Z,4.17
2018-06-23T17:42:02.909Z,5.07
2018-06-23T17:44:32.400Z,4.47
2018-06-23T17:47:01.955Z,5.10
2018-06-23T17:49:31.492Z,5.23
2018-06-23T17:52:01.262Z,5.27
2018-06-23T17:54:30.843Z,5.40
2018-06-23T17:57:00.401Z,5.20
2018-06-23T17:59:30.073Z,7.07
2018-06-23T18:01:59.823Z,5.83
2018-06-23T18:04:30.111Z,6.00
2018-06-23T18:07:00.273Z,5.87
2018-06-23T18:09:29.853Z,6.07
2018-06-23T18:11:59.598Z,6.13
2018-06-23T18:14:29.247Z,7.00
2018-06-23T18:17:00.632Z,5.43
2018-06-23T18:19:30.285Z,6.40
2018-06-23T18:21:59.961Z,7.80
2018-06-23T18:24:30.218Z,9.17
2018-06-23T18:27:00.158Z,9.20
2018-06-23T18:29:29.710Z,9.77
2018-06-23T18:31:59.960Z,11.77
2018-06-23T18:34:29.472Z,9.97
2018-06-23T18:36:59.555Z,9.03
2018-06-23T18:39:29.233Z,8.53
2018-06-23T18:41:59.012Z,9.50
2018-06-23T18:44:29.010Z,9.07
2018-06-23T18:46:59.729Z,9.10
2018-06-23T18:49:29.310Z,9.60
2018-06-23T18:51:58.881Z,8.90
2018-06-23T18:54:28.471Z,8.57
2018-06-23T18:56:58.673Z,9.73
2018-06-23T18:59:28.605Z,9.93
2018-06-23T19:01:58.104Z,8.90
2018-06-23T19:04:27.603Z,8.77
2018-06-23T19:06:57.248Z,9.87
2018-06-23T19:09:26.934Z,11.37
2018-06-23T19:11:56.482Z,10.27
2018-06-23T19:14:26.139Z,10.10
2018-06-23T19:16:55.720Z,9.10
2018-06-23T19:19:25.869Z,10.07
2018-06-23T19:21:55.488Z,8.40
2018-06-23T19:24:25.782Z,10.07
2018-06-23T19:26:55.508Z,7.50
2018-06-23T19:29:25.605Z,9.20
2018-06-23T19:31:55.217Z,8.60
2018-06-23T19:34:24.883Z,9.80
2018-06-23T19:36:54.446Z,11.50
2018-06-23T19:39:23.998Z,9.80
2018-06-23T19:41:53.630Z,9.30
2018-06-23T19:44:23.218Z,8.60
2018-06-23T19:46:52.842Z,8.87
2018-06-23T19:49:22.458Z,8.13
2018-06-23T19:51:52.285Z,8.70
2018-06-23T19:54:21.829Z,11.00
2018-06-23T19:56:51.487Z,9.53
2018-06-23T19:59:21.065Z,8.43
2018-06-23T20:01:50.816Z,9.87
2018-06-23T20:04:20.417Z,10.47
2018-06-23T20:06:50.026Z,11.20
2018-06-23T20:09:19.620Z,12.03
2018-06-23T20:11:49.135Z,11.10
2018-06-23T20:14:18.660Z,11.07
2018-06-23T20:16:48.242Z,11.63
2018-06-23T20:19:17.831Z,11.50
2018-06-23T20:21:47.375Z,10.33
2018-06-23T20:24:16.941Z,9.37
2018-06-23T20:26:46.591Z,10.80
2018-06-23T20:29:16.252Z,11.00
2018-06-23T20:31:45.908Z,10.07
2018-06-23T20:34:15.524Z,10.47
2018-06-23T20:36:45.260Z,10.87
2018-06-23T20:39:14.910Z,9.70
2018-06-23T20:41:44.484Z,11.17
2018-06-23T20:44:14.049Z,11.60
2018-06-23T20:46:43.588Z,12.10
2018-06-23T20:49:13.162Z,11.50
2018-06-23T20:51:42.743Z,10.80
2018-06-23T20:54:12.350Z,13.80
2018-06-23T20:56:42.017Z,12.80
2018-06-23T20:59:11.642Z,12.03
2018-06-23T21:01:41.663Z,12.33
2018-06-23T21:04:11.944Z,11.83
2018-06-23T21:06:41.584Z,10.67
2018-06-23T21:09:11.992Z,12.47
2018-06-23T21:11:41.497Z,11.53
2018-06-23T21:14:11.475Z,13.20
2018-06-23T21:16:41.067Z,10.73
2018-06-23T21:19:11.046Z,12.33
2018-06-23T21:21:40.581Z,11.27
2018-06-23T21:24:10.288Z,10.80
2018-06-23T21:26:39.873Z,12.13
2018-06-23T21:29:09.530Z,13.60
2018-06-23T21:31:39.128Z,13.43
2018-06-23T21:34:08.656Z,11.30
2018-06-23T21:36:38.734Z,10.23
2018-06-23T21:39:09.697Z,10.30
2018-06-23T21:41:39.218Z,8.80
2018-06-23T21:44:08.897Z,10.20
2018-06-23T21:46:38.474Z,8.23
2018-06-23T21:49:07.976Z,8.20
2018-06-23T21:51:37.514Z,8.07
2018-06-23T21:54:07.054Z,8.77
2018-06-23T21:56:37.085Z,8.70
2018-06-23T21:59:06.632Z,8.53
2018-06-23T22:01:36.482Z,10.63
2018-06-23T22:04:06.006Z,9.57
2018-06-23T22:06:35.674Z,8.60
2018-06-23T22:09:07.684Z,8.40
2018-06-23T22:11:37.404Z,8.97
2018-06-23T22:14:07.860Z,10.67
2018-06-23T22:16:37.317Z,10.17
2018-06-23T22:19:06.932Z,10.70
2018-06-23T22:21:36.467Z,10.40
2018-06-23T22:24:06.071Z,10.73
2018-06-23T22:26:36.039Z,10.00
2018-06-23T22:29:05.505Z,10.20
2018-06-23T22:31:35.013Z,10.93
2018-06-23T22:34:04.637Z,10.70
2018-06-23T22:36:34.210Z,11.10
2018-06-23T22:39:03.801Z,10.80
2018-06-23T22:41:33.371Z,12.10
2018-06-23T22:44:03.034Z,12.00
2018-06-23T22:46:32.679Z,11.97
2018-06-23T22:49:02.876Z,10.13
2018-06-23T22:51:32.717Z,11.33
2018-06-23T22:54:02.620Z,10.80
2018-06-23T22:56:32.145Z,10.93
2018-06-23T22:59:01.711Z,10.00
2018-06-23T23:01:31.261Z,10.53
2018-06-23T23:04:00.777Z,11.60
2018-06-23T23:06:30.427Z,11.03
2018-06-23T23:09:01.172Z,11.13
2018-06-23T23:11:30.647Z,10.83
2018-06-23T23:14:00.242Z,10.53
2018-06-23T23:16:29.895Z,11.73
2018-06-23T23:18:59.403Z,10.20
2018-06-23T23:21:29.066Z,9.80
2018-06-23T23:23:58.594Z,10.83
2018-06-23T23:26:28.559Z,10.50
2018-06-23T23:28:58.046Z,9.60
2018-06-23T23:31:27.563Z,11.67
2018-06-23T23:33:58.345Z,11.17
2018-06-23T23:36:27.944Z,10.97
2018-06-23T23:38:57.523Z,10.97
2018-06-23T23:41:27.537Z,10.33
2018-06-23T23:43:57.181Z,11.60
2018-06-23T23:46:27.011Z,12.87
2018-06-23T23:48:56.555Z,10.67
2018-06-23T23:51:26.075Z,10.03
2018-06-23T23:53:56.314Z,12.17
2018-06-23T23:56:25.965Z,11.13
2018-06-23T23:58:55.671Z,11.67
